Time;durP1;ratioP1;P1;durP2;ratioP2;P2;SDS_P1;SDS_P2;PMS_P1;PMS_P2;Temp;Humidity;BMP_temperature;BMP_pressure;BME280_temperature;BME280_humidity;BME280_pressure;Samples;Min_cycle;Max_cycle;Signal;HPM_P1;HPM_P2
2022/08/14 00:01:58;;;;;;;11.85;9.93;;;21.10;99.90;;;;;;5048985;28;20247;-74
2022/08/14 00:04:28;;;;;;;11.65;9.90;;;21.10;99.90;;;;;;5049934;28;20216;-75
2022/08/14 00:07:03;;;;;;;12.60;9.90;;;21.10;99.90;;;;;;5037373;28;20209;-75
2022/08/14 00:09:31;;;;;;;13.80;9.77;;;21.00;99.90;;;;;;5032331;28;20237;-75
2022/08/14 00:11:58;;;;;;;11.68;10.25;;;21.00;99.90;;;;;;5049732;28;20280;-76
2022/08/14 00:14:27;;;;;;;13.48;10.48;;;21.00;99.90;;;;;;5032626;28;20252;-75
2022/08/14 00:16:54;;;;;;;13.85;11.55;;;20.90;99.90;;;;;;5049757;28;20205;-76
2022/08/14 00:19:22;;;;;;;14.70;10.80;;;20.90;99.90;;;;;;5049861;28;20239;-75
2022/08/14 00:21:50;;;;;;;13.77;11.18;;;20.80;99.90;;;;;;5050050;28;20284;-77
2022/08/14 00:24:19;;;;;;;13.50;11.77;;;20.80;99.90;;;;;;5049337;28;20279;-75
2022/08/14 00:26:55;;;;;;;14.90;12.05;;;20.80;99.90;;;;;;5049660;28;20205;-73
2022/08/14 00:29:22;;;;;;;13.40;11.98;;;20.70;99.90;;;;;;5049268;28;20547;-76
2022/08/14 00:31:53;;;;;;;12.52;11.07;;;20.70;99.90;;;;;;5033078;28;20490;-74
2022/08/14 00:34:23;;;;;;;12.93;11.48;;;20.70;99.90;;;;;;5049638;28;20405;-76
2022/08/14 00:37:04;;;;;;;12.65;11.27;;;20.60;99.90;;;;;;5049654;28;20326;-75
2022/08/14 00:39:33;;;;;;;15.48;12.55;;;20.60;99.90;;;;;;5049586;28;20628;-74
2022/08/14 00:42:00;;;;;;;13.30;10.88;;;20.50;99.90;;;;;;5048913;28;20244;-75
2022/08/14 00:44:29;;;;;;;12.85;11.52;;;20.50;99.90;;;;;;5050146;28;20255;-76
2022/08/14 00:47:07;;;;;;;12.93;11.60;;;20.60;99.90;;;;;;5049382;28;20236;-76
2022/08/14 00:49:36;;;;;;;12.45;11.20;;;20.50;99.90;;;;;;5050672;28;20227;-74
2022/08/14 00:52:15;;;;;;;12.43;10.98;;;20.50;99.90;;;;;;5049164;28;20660;-75
2022/08/14 00:54:46;;;;;;;13.70;11.60;;;20.40;99.90;;;;;;5040741;28;20268;-74
2022/08/14 00:57:13;;;;;;;13.05;11.10;;;20.40;99.90;;;;;;5049409;28;20236;-75
2022/08/14 00:59:40;;;;;;;14.30;11.00;;;20.40;99.90;;;;;;5049168;28;20233;-75
2022/08/14 01:02:07;;;;;;;16.52;12.07;;;20.30;99.90;;;;;;5049357;28;20217;-75
2022/08/14 01:04:38;;;;;;;14.35;12.00;;;20.30;99.90;;;;;;5049136;28;20213;-75
2022/08/14 01:07:22;;;;;;;15.23;12.05;;;20.30;99.90;;;;;;5048324;28;20276;-74
2022/08/14 01:09:52;;;;;;;12.77;11.40;;;20.20;99.90;;;;;;5048571;28;20630;-74
2022/08/14 01:12:20;;;;;;;14.07;12.57;;;20.10;99.90;;;;;;5049047;28;20204;-75
2022/08/14 01:14:57;;;;;;;16.88;11.38;;;20.10;99.90;;;;;;5048622;28;20261;-74
2022/08/14 01:23:10;;;;;;;12.82;11.52;;;20.10;99.90;;;;;;5048209;28;20193;-74
2022/08/14 01:25:47;;;;;;;13.35;11.57;;;20.00;99.90;;;;;;5048479;28;20197;-74
2022/08/14 01:28:14;;;;;;;12.50;10.68;;;20.00;99.90;;;;;;5049602;28;20220;-74
2022/08/14 01:31:04;;;;;;;15.13;10.60;;;20.00;99.90;;;;;;5048853;28;20617;-74
2022/08/14 01:33:32;;;;;;;12.75;11.30;;;20.00;99.90;;;;;;5048262;28;20216;-75
2022/08/14 01:36:19;;;;;;;12.75;11.27;;;19.90;99.90;;;;;;5031958;28;20276;-75
2022/08/14 01:38:50;;;;;;;14.25;11.15;;;19.90;99.90;;;;;;5031282;28;20523;-74
2022/08/14 01:41:20;;;;;;;15.95;11.80;;;19.90;99.90;;;;;;5048881;28;20201;-75
2022/08/14 01:44:00;;;;;;;15.32;11.43;;;19.90;99.90;;;;;;5026401;28;20209;-75
2022/08/14 01:46:31;;;;;;;13.23;11.93;;;19.90;99.90;;;;;;5048488;28;20248;-75
2022/08/14 01:49:06;;;;;;;12.75;11.45;;;19.90;99.90;;;;;;5048137;28;20216;-75
2022/08/14 01:51:34;;;;;;;14.60;12.57;;;19.80;99.90;;;;;;5047330;28;20608;-76
2022/08/14 01:54:14;;;;;;;14.07;11.90;;;19.80;99.90;;;;;;5047680;28;20622;-74
2022/08/14 01:56:44;;;;;;;15.55;11.98;;;19.70;99.90;;;;;;5048330;28;20213;-74
2022/08/14 01:59:16;;;;;;;14.05;12.05;;;19.70;99.90;;;;;;5048081;28;20237;-75
2022/08/14 02:01:45;;;;;;;13.25;11.77;;;19.70;99.90;;;;;;5039977;28;20278;-73
2022/08/14 02:04:30;;;;;;;14.88;11.90;;;19.60;99.90;;;;;;5041977;28;20215;-75
2022/08/14 02:07:19;;;;;;;15.88;13.13;;;19.60;99.90;;;;;;5048171;28;20284;-76
2022/08/14 02:10:07;;;;;;;14.05;12.60;;;19.60;99.90;;;;;;5029596;28;20212;-75
2022/08/14 02:12:45;;;;;;;16.45;13.18;;;19.50;99.90;;;;;;5031394;28;20627;-74
2022/08/14 02:15:23;;;;;;;13.30;12.00;;;19.50;99.90;;;;;;5047974;28;20228;-75
2022/08/14 02:17:50;;;;;;;15.13;13.53;;;19.40;99.90;;;;;;5047693;28;20225;-75
2022/08/14 02:20:19;;;;;;;15.10;13.13;;;19.40;99.90;;;;;;5048287;28;20209;-77
2022/08/14 02:22:51;;;;;;;13.93;11.88;;;19.30;99.90;;;;;;5047544;28;20649;-75
2022/08/14 02:25:21;;;;;;;13.38;11.95;;;19.30;99.90;;;;;;5047481;28;20205;-75
2022/08/14 02:27:48;;;;;;;14.77;12.50;;;19.20;99.90;;;;;;5048054;28;20201;-74
2022/08/14 02:30:35;;;;;;;14.63;13.10;;;19.30;99.90;;;;;;5047849;28;20212;-75
2022/08/14 02:33:06;;;;;;;16.00;14.07;;;19.20;99.90;;;;;;5047029;28;20213;-74
2022/08/14 02:35:33;;;;;;;18.35;13.57;;;19.10;99.90;;;;;;5030376;28;20283;-74
2022/08/14 02:38:07;;;;;;;16.15;13.65;;;19.10;99.90;;;;;;5047351;28;20220;-74
2022/08/14 02:40:37;;;;;;;18.00;13.50;;;19.10;99.90;;;;;;5047853;28;20296;-74
2022/08/14 02:43:06;;;;;;;15.43;13.07;;;19.10;99.90;;;;;;5047055;28;20201;-74
2022/08/14 02:45:34;;;;;;;15.95;13.00;;;19.10;99.90;;;;;;5048056;28;20193;-75
2022/08/14 02:48:11;;;;;;;18.20;13.87;;;19.00;99.90;;;;;;5047019;28;20240;-75
2022/08/14 02:50:59;;;;;;;19.38;12.23;;;19.00;99.90;;;;;;5046889;28;20280;-74
2022/08/14 02:53:27;;;;;;;16.50;14.47;;;19.00;99.90;;;;;;5047348;28;20252;-75
2022/08/14 02:55:56;;;;;;;15.63;13.60;;;19.00;99.90;;;;;;5047587;28;20308;-76
2022/08/14 02:58:46;;;;;;;16.17;14.37;;;18.90;99.90;;;;;;5047275;28;20246;-74
2022/08/14 03:01:16;;;;;;;16.07;14.07;;;18.90;99.90;;;;;;5045931;28;20213;-75
2022/08/14 03:03:47;;;;;;;17.07;14.23;;;18.90;99.90;;;;;;5024233;28;20226;-76
2022/08/14 03:06:15;;;;;;;15.70;13.70;;;18.80;99.90;;;;;;5027687;28;20237;-74
2022/08/14 03:09:00;;;;;;;17.50;14.30;;;18.80;99.90;;;;;;5027202;28;20201;-74
2022/08/14 03:11:27;;;;;;;15.63;13.90;;;18.70;99.90;;;;;;5027075;28;20294;-73
2022/08/14 03:14:00;;;;;;;19.17;15.13;;;18.80;99.90;;;;;;5007808;28;20213;-75
2022/08/14 03:16:34;;;;;;;19.70;14.90;;;18.80;99.90;;;;;;5012956;28;20724;-74
2022/08/14 03:19:08;;;;;;;17.17;14.57;;;18.80;99.90;;;;;;5026269;28;20217;-75
2022/08/14 03:21:38;;;;;;;17.03;14.33;;;18.70;99.90;;;;;;5027666;28;20206;-74
2022/08/14 03:26:55;;;;;;;17.70;14.50;;;18.70;99.90;;;;;;5028340;28;20205;-74
2022/08/14 03:29:24;;;;;;;18.33;14.87;;;18.70;99.90;;;;;;5026085;28;20213;-74
2022/08/14 03:31:52;;;;;;;18.80;15.40;;;18.70;99.90;;;;;;5027808;28;20232;-75
2022/08/14 03:34:22;;;;;;;18.63;16.00;;;18.70;99.90;;;;;;5046896;28;20681;-73
2022/08/14 03:37:09;;;;;;;17.40;14.47;;;18.70;99.90;;;;;;5049855;28;20244;-74
2022/08/14 03:39:56;;;;;;;17.27;15.47;;;18.60;99.90;;;;;;5039395;28;20305;-76
2022/08/14 03:42:23;;;;;;;19.87;15.93;;;18.60;99.90;;;;;;5018331;28;20193;-75
2022/08/14 03:45:01;;;;;;;20.30;16.33;;;18.50;99.90;;;;;;5042695;28;20197;-74
2022/08/14 03:47:48;;;;;;;19.53;15.90;;;18.50;99.90;;;;;;5030289;28;20209;-75
2022/08/14 03:50:25;;;;;;;19.90;16.23;;;18.40;99.90;;;;;;5042067;28;20216;-74
2022/08/14 03:53:00;;;;;;;17.20;14.53;;;18.40;99.90;;;;;;5049361;28;20209;-74
2022/08/14 03:55:27;;;;;;;21.37;15.73;;;18.40;99.90;;;;;;5050575;28;20282;-74
2022/08/14 03:57:56;;;;;;;19.30;15.37;;;18.40;99.90;;;;;;5048263;28;20788;-76
2022/08/14 04:00:28;;;;;;;20.07;16.33;;;18.40;99.90;;;;;;5050134;28;20237;-74
2022/08/14 04:03:11;;;;;;;18.50;15.03;;;18.30;99.90;;;;;;5049990;28;20562;-75
2022/08/14 04:05:45;;;;;;;17.90;14.17;;;18.30;99.90;;;;;;5049897;28;20328;-73
2022/08/14 04:08:15;;;;;;;19.13;15.13;;;18.30;99.90;;;;;;5050082;28;20201;-74
2022/08/14 04:10:56;;;;;;;16.10;14.40;;;18.30;99.90;;;;;;5050328;28;20197;-74
2022/08/14 04:13:23;;;;;;;18.23;15.33;;;18.20;99.90;;;;;;5049203;28;20205;-75
2022/08/14 04:15:53;;;;;;;18.90;15.20;;;18.20;99.90;;;;;;5050065;28;20708;-75
2022/08/14 04:18:28;;;;;;;16.93;15.13;;;18.30;99.90;;;;;;5049259;28;20225;-74
2022/08/14 04:20:56;;;;;;;22.20;14.47;;;18.20;99.90;;;;;;5049733;28;20288;-76
2022/08/14 04:23:25;;;;;;;19.23;15.13;;;18.20;99.90;;;;;;5050298;28;20221;-74
2022/08/14 04:26:00;;;;;;;20.90;16.03;;;18.20;99.90;;;;;;5050534;28;20205;-75
2022/08/14 04:28:27;;;;;;;18.47;15.53;;;18.20;99.90;;;;;;5049722;28;20243;-76
2022/08/14 04:31:14;;;;;;;20.10;14.83;;;18.20;99.90;;;;;;5049850;28;20284;-75
2022/08/14 04:33:42;;;;;;;20.13;15.47;;;18.20;99.90;;;;;;5032056;28;20637;-75
2022/08/14 04:36:09;;;;;;;18.87;15.43;;;18.20;99.90;;;;;;5048299;28;20601;-74
2022/08/14 04:44:16;;;;;;;19.00;14.83;;;18.10;99.90;;;;;;5049976;28;20345;-75
2022/08/14 04:49:49;;;;;;;20.83;16.80;;;18.20;99.90;;;;;;5048698;28;20669;-75
2022/08/14 04:52:23;;;;;;;18.70;15.80;;;18.20;99.90;;;;;;5048957;28;20197;-76
2022/08/14 04:54:51;;;;;;;20.60;17.07;;;18.20;99.90;;;;;;5048473;28;20309;-75
2022/08/14 04:57:20;;;;;;;18.63;15.80;;;18.20;99.90;;;;;;5049026;28;20205;-75
2022/08/14 04:59:48;;;;;;;20.77;17.10;;;18.20;99.90;;;;;;5048405;28;20303;-75
2022/08/14 05:02:16;;;;;;;21.13;17.07;;;18.30;99.90;;;;;;5030261;28;20757;-76
2022/08/14 05:04:43;;;;;;;20.27;17.13;;;18.30;99.90;;;;;;5032837;28;20212;-75
2022/08/14 05:07:24;;;;;;;20.47;17.83;;;18.30;99.90;;;;;;5048908;28;20653;-74
2022/08/14 05:10:11;;;;;;;20.50;16.63;;;18.30;99.90;;;;;;5050944;28;20208;-74
2022/08/14 05:12:47;;;;;;;23.42;16.55;;;18.40;99.90;;;;;;5058777;28;20193;-78
2022/08/14 05:15:36;;;;;;;19.43;15.83;;;18.40;99.90;;;;;;5051007;28;20664;-74
2022/08/14 05:18:15;;;;;;;23.57;17.97;;;18.40;99.90;;;;;;5029167;28;20586;-74
2022/08/14 05:21:07;;;;;;;20.33;16.87;;;18.50;99.90;;;;;;5048911;28;20204;-74
2022/08/14 05:23:54;;;;;;;19.85;16.33;;;18.50;99.90;;;;;;5049452;28;20288;-75
2022/08/14 05:26:22;;;;;;;21.98;18.35;;;18.60;99.90;;;;;;5048536;28;20205;-74
2022/08/14 05:28:49;;;;;;;22.67;18.27;;;18.60;99.90;;;;;;5048934;28;20666;-74
2022/08/14 05:31:17;;;;;;;20.45;17.70;;;18.70;99.90;;;;;;5049684;28;20209;-76
2022/08/14 05:33:46;;;;;;;22.87;18.77;;;18.70;99.90;;;;;;5031307;28;20213;-74
2022/08/14 05:36:24;;;;;;;22.40;18.42;;;18.80;99.90;;;;;;5048813;28;20236;-75
2022/08/14 05:38:53;;;;;;;26.30;20.55;;;18.90;99.90;;;;;;5048515;28;20575;-74
2022/08/14 05:41:21;;;;;;;24.38;18.17;;;18.90;99.90;;;;;;5051557;28;20207;-75
2022/08/14 05:43:48;;;;;;;22.15;17.85;;;19.10;99.90;;;;;;5052569;28;20189;-77
2022/08/14 05:46:21;;;;;;;23.60;19.35;;;19.10;99.90;;;;;;5041142;28;20348;-75
2022/08/14 05:48:50;;;;;;;23.08;19.08;;;19.10;99.90;;;;;;5047963;28;20214;-75
2022/08/14 05:51:17;;;;;;;22.95;19.58;;;19.30;99.90;;;;;;5048091;28;20688;-75
2022/08/14 05:53:44;;;;;;;21.42;18.27;;;19.30;99.90;;;;;;5047723;28;20197;-74
2022/08/14 05:56:31;;;;;;;23.13;18.42;;;19.40;99.90;;;;;;5048220;28;20242;-74
2022/08/14 05:59:02;;;;;;;22.45;19.40;;;19.40;99.90;;;;;;5046991;28;20228;-75
2022/08/14 06:01:29;;;;;;;24.95;19.80;;;19.50;99.90;;;;;;5048300;28;20687;-74
2022/08/14 06:04:00;;;;;;;22.48;18.92;;;19.60;99.90;;;;;;5053994;28;20252;-74
2022/08/14 06:06:30;;;;;;;21.98;18.95;;;19.70;99.90;;;;;;5052272;28;20200;-74
2022/08/14 06:09:04;;;;;;;21.13;18.58;;;19.90;99.90;;;;;;5048009;28;20239;-76
2022/08/14 06:11:30;;;;;;;21.73;18.58;;;20.20;99.90;;;;;;5048498;28;20201;-74
2022/08/14 06:13:58;;;;;;;20.15;17.73;;;21.20;99.90;;;;;;5047437;28;20190;-74
2022/08/14 06:16:25;;;;;;;22.65;17.40;;;22.40;99.90;;;;;;5048840;28;20213;-75
2022/08/14 06:18:53;;;;;;;20.65;17.30;;;23.60;99.90;;;;;;5043337;28;20217;-74
2022/08/14 06:21:25;;;;;;;18.48;16.15;;;24.80;99.90;;;;;;5047289;28;20208;-76
2022/08/14 06:23:52;;;;;;;18.42;16.45;;;25.90;99.90;;;;;;5048204;28;20209;-75
2022/08/14 06:26:19;;;;;;;20.70;16.42;;;27.00;99.90;;;;;;5047342;28;20251;-75
2022/08/14 06:28:48;;;;;;;17.42;15.63;;;27.90;99.90;;;;;;5052189;28;20661;-75
2022/08/14 06:31:19;;;;;;;17.23;15.43;;;28.50;99.90;;;;;;5052096;28;20220;-76
2022/08/14 06:33:46;;;;;;;16.67;14.98;;;29.20;99.90;;;;;;5047903;28;20274;-75
2022/08/14 06:36:35;;;;;;;16.80;14.48;;;29.80;99.90;;;;;;5045253;28;20402;-75
2022/08/14 06:39:02;;;;;;;17.55;15.40;;;30.50;99.90;;;;;;5047076;28;20251;-75
2022/08/14 06:41:33;;;;;;;16.75;14.90;;;31.00;99.90;;;;;;5059344;28;20295;-76
2022/08/14 06:44:20;;;;;;;16.85;14.70;;;31.50;99.90;;;;;;5037478;28;20232;-75
2022/08/14 06:46:56;;;;;;;16.55;14.75;;;32.00;98.90;;;;;;5035957;28;20607;-77
2022/08/14 06:49:25;;;;;;;16.50;14.80;;;32.50;99.90;;;;;;5049478;28;20209;-74
2022/08/14 06:51:53;;;;;;;15.75;13.95;;;32.70;96.40;;;;;;5047186;28;20206;-76
2022/08/14 06:54:20;;;;;;;13.80;12.50;;;33.00;95.30;;;;;;5047554;28;20251;-77
2022/08/14 06:56:47;;;;;;;14.32;12.93;;;33.30;94.20;;;;;;5047630;28;20283;-75
2022/08/14 06:59:20;;;;;;;12.85;11.55;;;33.70;93.20;;;;;;5047446;28;20312;-76
2022/08/14 07:07:24;;;;;;;11.88;10.65;;;33.90;90.30;;;;;;5047828;28;20682;-75
2022/08/14 07:09:54;;;;;;;11.98;10.88;;;33.80;90.00;;;;;;5047888;28;20197;-75
2022/08/14 07:12:22;;;;;;;13.60;10.82;;;33.60;89.30;;;;;;5050210;28;20896;-76
2022/08/14 07:15:09;;;;;;;12.85;10.90;;;33.50;89.40;;;;;;5043154;28;20635;-76
2022/08/14 07:17:48;;;;;;;12.40;11.07;;;33.70;89.10;;;;;;5049900;28;20935;-76
2022/08/14 07:20:19;;;;;;;10.93;9.90;;;;;;;;;;5046866;28;20227;-76
2022/08/14 07:23:01;;;;;;;10.85;9.85;;;34.20;85.90;;;;;;5044338;28;20530;-75
2022/08/14 07:25:36;;;;;;;10.73;9.63;;;34.20;85.80;;;;;;5038743;28;20197;-74
2022/08/14 07:28:15;;;;;;;10.82;9.82;;;34.20;85.00;;;;;;5051058;28;20695;-77
2022/08/14 07:30:48;;;;;;;10.63;9.52;;;34.10;83.10;;;;;;5051070;28;20295;-76
2022/08/14 07:33:18;;;;;;;11.38;9.73;;;34.00;83.80;;;;;;5052254;28;20267;-76
2022/08/14 07:35:51;;;;;;;10.25;9.20;;;33.90;83.80;;;;;;5048133;28;20267;-77
2022/08/14 07:38:26;;;;;;;11.38;9.32;;;33.80;83.60;;;;;;5050803;28;20201;-78
2022/08/14 07:41:04;;;;;;;10.35;9.45;;;34.00;83.30;;;;;;5051887;28;20201;-76
2022/08/14 07:43:41;;;;;;;10.82;9.82;;;34.20;82.70;;;;;;5050096;28;20205;-76
2022/08/14 07:46:08;;;;;;;10.23;9.23;;;34.40;82.30;;;;;;5050289;28;20219;-76
2022/08/14 07:48:39;;;;;;;9.80;8.88;;;34.50;81.40;;;;;;5051089;28;20220;-75
2022/08/14 07:51:07;;;;;;;11.85;9.18;;;34.60;80.80;;;;;;5051340;28;20232;-77
2022/08/14 07:53:38;;;;;;;10.13;9.13;;;34.70;80.40;;;;;;5050847;28;20312;-76
2022/08/14 07:56:07;;;;;;;9.93;9.02;;;34.70;80.00;;;;;;5050684;28;20279;-76
2022/08/14 07:58:53;;;;;;;9.75;8.80;;;34.70;79.60;;;;;;5043794;28;20261;-77
2022/08/14 08:01:26;;;;;;;9.25;8.43;;;34.50;79.40;;;;;;5030744;28;20264;-76
2022/08/14 08:03:58;;;;;;;8.80;7.95;;;34.40;79.10;;;;;;5040283;28;20217;-77
2022/08/14 08:06:27;;;;;;;10.60;9.00;;;34.30;78.90;;;;;;5050671;28;20251;-76
2022/08/14 08:08:57;;;;;;;9.32;8.43;;;34.10;78.80;;;;;;5042057;28;20666;-77
2022/08/14 08:11:32;;;;;;;12.10;9.07;;;34.10;79.30;;;;;;5030961;28;20276;-77
2022/08/14 08:14:08;;;;;;;9.43;8.30;;;34.10;80.10;;;;;;5030369;28;20251;-76
2022/08/14 08:16:42;;;;;;;9.60;8.05;;;34.10;79.40;;;;;;5013912;28;20276;-77
2022/08/14 08:19:10;;;;;;;9.52;8.10;;;34.30;79.30;;;;;;5030315;28;20220;-79
2022/08/14 08:21:40;;;;;;;8.73;7.75;;;34.50;78.50;;;;;;5029990;28;20231;-75
2022/08/14 08:24:10;;;;;;;9.63;8.63;;;34.60;78.70;;;;;;5030674;28;20240;-77
2022/08/14 08:26:40;;;;;;;10.02;8.40;;;34.70;78.00;;;;;;5030151;28;20678;-78
2022/08/14 08:29:08;;;;;;;8.55;7.75;;;34.70;77.20;;;;;;5030191;28;20197;-76
2022/08/14 08:31:54;;;;;;;9.50;8.43;;;34.70;76.80;;;;;;5030587;28;20201;-75
2022/08/14 08:34:21;;;;;;;8.63;7.80;;;34.80;75.80;;;;;;5029785;28;20263;-76
2022/08/14 08:36:50;;;;;;;9.77;7.60;;;34.90;76.40;;;;;;5030040;28;20271;-78
2022/08/14 08:39:18;;;;;;;8.18;7.47;;;35.00;76.20;;;;;;5030009;28;20205;-77
2022/08/14 08:41:48;;;;;;;12.23;7.45;;;35.10;75.20;;;;;;5029602;28;20205;-76
2022/08/14 08:44:20;;;;;;;8.63;7.68;;;35.30;75.10;;;;;;5026128;28;20345;-76
2022/08/14 08:47:04;;;;;;;8.43;7.65;;;35.40;74.50;;;;;;5009281;28;20241;-77
2022/08/14 08:49:44;;;;;;;7.82;7.13;;;35.50;73.80;;;;;;5010424;28;20194;-77
2022/08/14 08:52:25;;;;;;;9.00;7.82;;;35.50;73.50;;;;;;5010099;28;20194;-76
2022/08/14 08:54:57;;;;;;;8.20;7.22;;;35.30;74.40;;;;;;5010030;28;20194;-76
2022/08/14 08:57:24;;;;;;;7.95;7.22;;;35.40;73.70;;;;;;5027654;28;20312;-79
2022/08/14 08:59:52;;;;;;;7.82;7.13;;;35.50;73.80;;;;;;5025204;28;20233;-76
2022/08/14 09:02:24;;;;;;;8.52;7.75;;;35.50;73.60;;;;;;5049207;28;20217;-78
2022/08/14 09:05:01;;;;;;;10.05;8.25;;;35.20;73.20;;;;;;5049519;28;20288;-76
2022/08/14 09:07:28;;;;;;;8.60;7.80;;;35.10;73.30;;;;;;5049448;28;20192;-76
2022/08/14 09:09:57;;;;;;;8.75;7.95;;;35.00;73.60;;;;;;5031811;28;20200;-77
2022/08/14 09:12:29;;;;;;;8.23;7.53;;;35.00;74.30;;;;;;5048358;28;20664;-77
2022/08/14 09:15:04;;;;;;;7.75;7.03;;;34.90;73.90;;;;;;5050058;28;20201;-76
2022/08/14 09:17:39;;;;;;;8.18;7.38;;;35.00;74.10;;;;;;5048892;28;20304;-76
2022/08/14 09:20:09;;;;;;;8.55;7.80;;;35.10;74.60;;;;;;5049419;28;20197;-76
2022/08/14 09:22:41;;;;;;;8.65;7.75;;;35.20;74.00;;;;;;5049408;28;20201;-77
2022/08/14 09:25:15;;;;;;;8.18;7.47;;;35.10;73.10;;;;;;5048263;28;20268;-76
2022/08/14 09:27:45;;;;;;;7.93;7.13;;;35.00;72.90;;;;;;5048700;28;20630;-76
2022/08/14 09:30:12;;;;;;;8.02;7.03;;;34.90;72.90;;;;;;5048151;28;20205;-76
2022/08/14 09:33:01;;;;;;;8.05;7.35;;;34.90;72.90;;;;;;5047416;28;20236;-75
2022/08/14 09:36:01;;;;;;;8.18;7.47;;;34.90;73.50;;;;;;5028721;28;20673;-78
2022/08/14 09:38:31;;;;;;;7.53;6.60;;;34.80;73.20;;;;;;5046200;28;20201;-77
2022/08/14 09:41:09;;;;;;;7.38;6.72;;;34.60;73.00;;;;;;5048591;28;20715;-77
2022/08/14 09:44:02;;;;;;;8.10;7.30;;;34.50;73.60;;;;;;5048363;28;20200;-77
2022/08/14 09:46:33;;;;;;;8.32;7.10;;;34.20;74.10;;;;;;5052590;28;20251;-76
2022/08/14 09:49:01;;;;;;;9.23;7.57;;;34.00;75.20;;;;;;5051200;28;20752;-76
2022/08/14 09:51:30;;;;;;;7.78;7.07;;;34.00;74.50;;;;;;5068570;28;20196;-76
2022/08/14 09:54:11;;;;;;;7.55;6.85;;;34.00;74.10;;;;;;5031427;28;20606;-76
2022/08/14 09:56:50;;;;;;;7.75;6.95;;;34.20;75.50;;;;;;5064236;28;20239;-75
2022/08/14 09:59:26;;;;;;;8.40;7.60;;;34.30;83.60;;;;;;5041757;28;20220;-74
2022/08/14 10:01:55;;;;;;;7.45;6.72;;;34.40;74.30;;;;;;5048236;28;20304;-76
2022/08/14 10:04:25;;;;;;;9.23;7.10;;;34.30;74.60;;;;;;5047629;28;20292;-76
2022/08/14 10:07:04;;;;;;;7.75;7.05;;;34.40;73.80;;;;;;5047196;28;20209;-75
2022/08/14 10:09:44;;;;;;;8.40;7.68;;;34.30;73.40;;;;;;5047009;28;20583;-77
2022/08/14 10:12:49;;;;;;;7.82;7.10;;;34.00;74.50;;;;;;5047730;28;20198;-76
2022/08/14 10:15:23;;;;;;;8.55;7.65;;;33.90;75.90;;;;;;5048066;28;20205;-76
2022/08/14 10:18:06;;;;;;;8.05;7.25;;;33.80;75.00;;;;;;5047496;28;20328;-75
2022/08/14 10:20:42;;;;;;;7.40;6.70;;;34.00;73.90;;;;;;5030530;28;20197;-76
2022/08/14 10:23:19;;;;;;;7.45;6.50;;;33.90;74.00;;;;;;5047887;28;20205;-76
2022/08/14 10:25:56;;;;;;;8.88;7.10;;;34.00;73.70;;;;;;5047472;28;20205;-75
2022/08/14 10:28:26;;;;;;;8.88;7.15;;;34.00;73.70;;;;;;5047286;28;20204;-75
2022/08/14 10:31:23;;;;;;;7.32;6.63;;;34.10;73.90;;;;;;5039324;28;20691;-76
2022/08/14 10:34:10;;;;;;;7.88;7.18;;;34.20;72.90;;;;;;5047941;28;20615;-76
2022/08/14 10:36:42;;;;;;;8.93;6.72;;;34.10;71.70;;;;;;5051768;28;20350;-75
2022/08/14 10:39:19;;;;;;;8.75;7.55;;;34.00;72.40;;;;;;5067886;28;20230;-75
2022/08/14 10:41:47;;;;;;;7.47;6.78;;;34.10;73.30;;;;;;5058036;28;20227;-76
2022/08/14 10:44:23;;;;;;;7.38;6.57;;;34.10;74.30;;;;;;5028719;28;20201;-77
2022/08/14 10:46:57;;;;;;;7.35;6.65;;;34.00;74.10;;;;;;5050609;28;20204;-76
2022/08/14 10:49:56;;;;;;;8.40;6.82;;;34.10;72.30;;;;;;5063418;28;20287;-75
2022/08/14 10:52:30;;;;;;;7.43;6.70;;;34.00;72.10;;;;;;5031528;28;20202;-76
2022/08/14 10:55:10;;;;;;;7.72;7.03;;;34.10;73.40;;;;;;5045792;28;20688;-75
2022/08/14 10:57:50;;;;;;;8.02;7.22;;;34.10;72.30;;;;;;5051118;28;20740;-75
2022/08/14 11:00:25;;;;;;;7.28;6.57;;;34.00;71.80;;;;;;5049902;28;20212;-76
2022/08/14 11:03:08;;;;;;;8.13;6.95;;;34.00;72.20;;;;;;5051400;28;20217;-76
2022/08/14 11:05:39;;;;;;;7.72;6.93;;;34.00;72.90;;;;;;5049997;28;20236;-75
2022/08/14 11:08:07;;;;;;;7.90;7.10;;;33.90;72.90;;;;;;5028734;28;20724;-75
2022/08/14 11:10:46;;;;;;;8.48;7.30;;;33.90;74.50;;;;;;5047594;28;20221;-74
2022/08/14 11:13:21;;;;;;;7.45;6.75;;;33.80;73.20;;;;;;5049529;28;20570;-75
2022/08/14 11:15:50;;;;;;;7.45;6.70;;;33.80;72.00;;;;;;5047706;28;20224;-76
2022/08/14 11:18:19;;;;;;;6.97;6.30;;;33.80;71.10;;;;;;5049813;28;20224;-76
2022/08/14 11:21:05;;;;;;;9.48;6.95;;;33.70;70.50;;;;;;5049874;28;20263;-76
2022/08/14 11:23:34;;;;;;;7.60;6.78;;;33.80;72.00;;;;;;5047133;28;20193;-76
2022/08/14 11:26:07;;;;;;;7.85;7.05;;;34.00;71.60;;;;;;5052821;28;20273;-77
2022/08/14 11:28:42;;;;;;;7.10;6.40;;;34.20;71.30;;;;;;5051672;28;20669;-76
2022/08/14 11:31:19;;;;;;;6.57;5.97;;;34.30;70.60;;;;;;5053540;28;20193;-75
2022/08/14 11:33:55;;;;;;;7.45;6.75;;;34.40;71.30;;;;;;5050500;28;20205;-75
2022/08/14 11:36:27;;;;;;;7.20;6.47;;;34.50;70.00;;;;;;5042573;28;20616;-77
2022/08/14 11:39:21;;;;;;;7.05;6.35;;;34.60;69.20;;;;;;5037741;28;20202;-75
2022/08/14 11:42:02;;;;;;;7.47;6.78;;;34.70;69.50;;;;;;5029920;28;20505;-75
2022/08/14 11:44:50;;;;;;;7.40;6.40;;;34.80;70.10;;;;;;5050925;28;20232;-77
2022/08/14 11:47:23;;;;;;;7.38;6.63;;;34.90;70.50;;;;;;5051591;28;20221;-75
2022/08/14 11:50:16;;;;;;;6.82;5.85;;;34.90;69.90;;;;;;5050302;28;20232;-77
2022/08/14 11:53:03;;;;;;;9.07;6.88;;;34.90;69.00;;;;;;5049525;28;20688;-77
2022/08/14 11:55:36;;;;;;;7.03;6.00;;;34.90;69.80;;;;;;5049420;28;20263;-76
2022/08/14 11:58:09;;;;;;;7.15;6.30;;;35.00;68.90;;;;;;5046544;28;20688;-75
2022/08/14 12:00:52;;;;;;;6.47;5.97;;;35.00;67.60;;;;;;5051177;28;20198;-75
2022/08/14 12:03:20;;;;;;;6.72;6.07;;;35.00;68.60;;;;;;5032966;28;20213;-76
2022/08/14 12:06:09;;;;;;;6.60;5.95;;;35.00;67.70;;;;;;5029510;28;20204;-74
2022/08/14 12:08:55;;;;;;;6.20;5.70;;;35.10;67.60;;;;;;5049854;28;20271;-74
2022/08/14 12:11:25;;;;;;;6.60;6.00;;;35.30;66.50;;;;;;5040725;28;20193;-76
2022/08/14 12:13:52;;;;;;;5.60;5.10;;;35.30;64.80;;;;;;5050173;28;20644;-76
2022/08/14 12:16:21;;;;;;;6.35;5.85;;;35.30;63.70;;;;;;5049845;28;20556;-76
2022/08/14 12:18:49;;;;;;;6.40;5.82;;;35.30;63.50;;;;;;5050318;28;20220;-77
2022/08/14 12:21:21;;;;;;;6.70;6.10;;;35.30;63.60;;;;;;5050089;28;20549;-76
2022/08/14 12:24:01;;;;;;;6.72;6.13;;;35.30;64.20;;;;;;5049191;28;20762;-75
2022/08/14 12:26:28;;;;;;;6.72;6.13;;;35.20;63.20;;;;;;5031951;28;20215;-75
2022/08/14 12:29:11;;;;;;;5.53;5.03;;;35.10;63.60;;;;;;5049348;28;20232;-76
2022/08/14 12:31:40;;;;;;;6.70;6.10;;;35.10;63.90;;;;;;5049870;28;20212;-76
2022/08/14 12:34:15;;;;;;;6.85;6.20;;;35.00;63.80;;;;;;5049663;28;20557;-76
2022/08/14 12:36:46;;;;;;;7.10;6.38;;;34.90;63.50;;;;;;5049470;28;20228;-75
2022/08/14 12:39:19;;;;;;;7.10;6.05;;;35.00;64.40;;;;;;5049260;28;20209;-77
2022/08/14 12:41:59;;;;;;;5.97;5.47;;;35.20;64.30;;;;;;5049176;28;20232;-76
2022/08/14 12:44:36;;;;;;;7.65;5.43;;;35.40;64.00;;;;;;5049819;28;20205;-76
2022/08/14 12:47:11;;;;;;;6.50;5.70;;;35.60;63.70;;;;;;5048922;28;20564;-74
2022/08/14 12:49:56;;;;;;;6.13;5.53;;;35.70;63.90;;;;;;5048965;28;20213;-75
2022/08/14 12:52:33;;;;;;;6.82;5.60;;;35.90;63.90;;;;;;5048625;28;20639;-75
2022/08/14 12:55:19;;;;;;;6.20;5.60;;;35.90;64.10;;;;;;5049095;28;20609;-76
2022/08/14 12:57:50;;;;;;;6.63;6.05;;;36.00;63.10;;;;;;5049232;28;20663;-77
2022/08/14 13:00:24;;;;;;;6.35;5.75;;;35.90;62.60;;;;;;5046320;28;20229;-77
2022/08/14 13:02:55;;;;;;;6.78;6.05;;;35.80;62.50;;;;;;5029334;28;20316;-75
2022/08/14 13:05:30;;;;;;;6.47;5.88;;;35.40;62.40;;;;;;5038642;28;20198;-76
2022/08/14 13:08:03;;;;;;;6.78;6.07;;;35.00;62.70;;;;;;5043515;28;20201;-75
2022/08/14 13:10:33;;;;;;;6.93;5.70;;;34.70;63.50;;;;;;5048997;28;20208;-76
2022/08/14 13:13:19;;;;;;;6.18;5.60;;;34.40;64.60;;;;;;5047874;28;20205;-76
2022/08/14 13:15:51;;;;;;;6.32;5.72;;;34.30;64.60;;;;;;5049544;28;20280;-75
2022/08/14 13:18:26;;;;;;;6.50;5.90;;;34.20;64.40;;;;;;5049804;28;20233;-78
2022/08/14 13:20:57;;;;;;;5.93;5.32;;;34.10;63.90;;;;;;5053412;28;20217;-75
2022/08/14 13:23:32;;;;;;;6.07;5.55;;;33.80;64.40;;;;;;5048821;28;20201;-76
2022/08/14 13:26:03;;;;;;;6.65;5.72;;;33.80;65.90;;;;;;5049163;28;20225;-75
2022/08/14 13:28:33;;;;;;;8.18;5.55;;;33.40;66.60;;;;;;5048024;28;20627;-76
2022/08/14 13:31:08;;;;;;;5.68;5.18;;;33.50;67.30;;;;;;5047835;28;20207;-76
2022/08/14 13:33:38;;;;;;;6.45;5.85;;;33.80;67.40;;;;;;5048688;28;20253;-75